KPSK/PSK METAR and TAF weather

Enter ICAO airport designator
Station Type Date Time Source
KPSK METAR 2020/09/23 18:15 UTC NOAA

KPSK 231815Z AUTO 04004KT 10SM CLR 20/12 A3011 RMK AO2 T02030115


Station Type Date Time Source
KPSK Decoded METAR 2020/09/23 18:15 UTC NOAA

Dublin / New River Valley, VA, United States (KPSK) 37-08N 080-41W
Sep 23, 2020 - 02:15 PM EDT / 2020.09.23 1815 UTC
Wind: from the NE (040 degrees) at 5 MPH (4 KT):0
Visibility: 10 mile(s):0
Sky conditions: clear
Temperature: 68.5 F (20.3 C)
Dew Point: 52.7 F (11.5 C)
Relative Humidity: 56%
Pressure (altimeter): 30.11 in. Hg (1019 hPa)
ob: KPSK 231815Z AUTO 04004KT 10SM CLR 20/12 A3011 RMK AO2 T02030115
cycle: 18

Station Type Date Time Source
KPSK TAF UTC NOAA

Error!

Example: see airport list